Aviation Digital Data Service (ADDS)

Output produced by METARs form (2208 UTC 29 August 2014)
found at http://www.aviationweather.gov/adds/metars/
 
KDCA 292132Z 2922/3018 18006KT P6SM FEW070 SCT250 
     FM300800 VRB03KT P6SM BKN110 
     FM301700 16007KT P6SM BKN035